Cabezon de la Sal, Spain
Current Conditions -  °F | °C
As of 3:00 PM on Monday 20 Oct 2014 (Local Time) from LEXJ Reporting Station
Broken Clouds Broken Clouds  
Wind Chill: 70°   Ceiling: 1500
Heat Index: 70°   Visibility: 6mi
Dew Point: 64°   Wind: 8mph
Humidity: 83%   Direction: 320°NW
Pressure: 30.12"   Gusts: NA
Location:  43.31°N, 4.24°W
Report Text: LEXJ 201300Z 32007KT 290V010 9999 BKN015 21/18 Q1020
Loading
Personal Weather Stations






























Interactive Weather Map
Tropical Storm Tracking
New forecast layout! Learn more

10-Day Weather Forecast

Advertisements
Track Severe Weather on mobile